Time;durP1;ratioP1;P1;durP2;ratioP2;P2;SDS_P1;SDS_P2;PMS_P1;PMS_P2;Temp;Humidity;BMP_temperature;BMP_pressure;BME280_temperature;BME280_humidity;BME280_pressure;Samples;Min_cycle;Max_cycle;Signal;HPM_P1;HPM_P2
2023/06/05 00:01:56;;;;;;;5.10;1.60;;;18.80;92.50;;;;;;5052365;28;20553;-74
2023/06/05 00:04:23;;;;;;;5.30;1.80;;;18.80;92.60;;;;;;5051095;28;20021;-74
2023/06/05 00:06:50;;;;;;;3.67;1.63;;;18.80;93.60;;;;;;5052444;28;20082;-75
2023/06/05 00:09:16;;;;;;;4.10;1.80;;;18.80;94.70;;;;;;5052204;28;20032;-74
2023/06/05 00:11:42;;;;;;;3.80;1.58;;;18.80;95.40;;;;;;5052264;28;20432;-74
2023/06/05 00:14:08;;;;;;;5.30;1.50;;;18.80;95.40;;;;;;5052201;28;20025;-73
2023/06/05 00:16:34;;;;;;;15.05;3.28;;;18.90;95.50;;;;;;5052218;28;20021;-75
2023/06/05 00:19:00;;;;;;;3.40;1.73;;;18.90;95.20;;;;;;5052134;28;20036;-73
2023/06/05 00:21:26;;;;;;;3.42;1.45;;;18.80;94.80;;;;;;5051921;28;20029;-74
2023/06/05 00:23:52;;;;;;;3.65;1.50;;;18.80;94.50;;;;;;5051904;28;20025;-74
2023/06/05 00:26:18;;;;;;;3.00;1.55;;;18.80;93.90;;;;;;5052180;28;20048;-74
2023/06/05 00:28:43;;;;;;;3.90;1.58;;;18.80;93.40;;;;;;5051971;28;20401;-74
2023/06/05 00:31:09;;;;;;;5.90;1.60;;;18.80;92.70;;;;;;5051697;28;20057;-75
2023/06/05 00:33:35;;;;;;;2.38;1.10;;;18.80;93.20;;;;;;5051857;28;20025;-75
2023/06/05 00:36:00;;;;;;;2.60;1.38;;;18.80;92.60;;;;;;5050515;28;20021;-74
2023/06/05 00:38:26;;;;;;;3.67;1.45;;;18.80;92.20;;;;;;5051689;28;20444;-74
2023/06/05 00:40:52;;;;;;;3.20;1.45;;;18.80;91.60;;;;;;5050494;28;20056;-75
2023/06/05 00:43:17;;;;;;;3.60;1.13;;;18.80;91.30;;;;;;5051509;28;20059;-75
2023/06/05 00:45:43;;;;;;;2.25;1.40;;;18.80;91.50;;;;;;5051062;28;20063;-75
2023/06/05 00:48:10;;;;;;;3.05;1.50;;;18.80;91.50;;;;;;5051745;28;20401;-74
2023/06/05 00:50:36;;;;;;;3.70;1.80;;;18.70;91.80;;;;;;5051595;28;20107;-75
2023/06/05 00:53:04;;;;;;;4.28;1.63;;;18.70;92.60;;;;;;5051536;28;20041;-75
2023/06/05 00:55:30;;;;;;;3.97;1.77;;;18.70;93.40;;;;;;5050470;28;20029;-74
2023/06/05 00:57:56;;;;;;;5.18;2.08;;;18.60;94.40;;;;;;5051191;28;20064;-74
2023/06/05 01:00:23;;;;;;;3.03;1.17;;;18.60;95.20;;;;;;5051456;28;20025;-74
2023/06/05 01:02:53;;;;;;;3.90;1.40;;;18.60;95.80;;;;;;5051372;28;20082;-74
2023/06/05 01:05:19;;;;;;;5.85;1.45;;;18.50;96.40;;;;;;5051209;28;20029;-75
2023/06/05 01:07:48;;;;;;;3.63;1.80;;;18.50;96.90;;;;;;5051327;28;20021;-74
2023/06/05 01:10:14;;;;;;;5.93;1.40;;;18.40;97.80;;;;;;5051156;28;20091;-74
2023/06/05 01:13:21;;;;;;;2.70;1.63;;;18.40;98.50;;;;;;5051079;28;20028;-74
2023/06/05 01:15:48;;;;;;;4.40;1.73;;;18.40;99.20;;;;;;5051172;28;20099;-75
2023/06/05 01:18:14;;;;;;;4.22;1.60;;;18.40;99.60;;;;;;5051096;28;20124;-74
2023/06/05 01:20:41;;;;;;;3.88;1.50;;;18.30;99.90;;;;;;5049845;28;20029;-74
2023/06/05 01:23:08;;;;;;;5.13;2.05;;;18.40;99.90;;;;;;5050727;28;20028;-74
2023/06/05 01:25:36;;;;;;;4.43;1.85;;;18.40;99.90;;;;;;5050974;28;20017;-74
2023/06/05 01:28:16;;;;;;;6.35;1.77;;;18.30;99.90;;;;;;5050834;28;20041;-74
2023/06/05 01:31:03;;;;;;;3.70;1.55;;;18.40;99.30;;;;;;5050983;28;20025;-74
2023/06/05 01:33:41;;;;;;;4.25;1.95;;;18.40;99.80;;;;;;5050635;28;20032;-74
2023/06/05 01:36:12;;;;;;;8.10;1.58;;;18.40;99.90;;;;;;5049598;28;20451;-74
2023/06/05 01:38:40;;;;;;;6.20;1.50;;;18.40;98.50;;;;;;5050714;28;20037;-74
2023/06/05 01:41:08;;;;;;;3.72;1.92;;;18.40;95.70;;;;;;5050485;28;20064;-74
2023/06/05 01:43:34;;;;;;;4.15;1.85;;;18.50;95.50;;;;;;5050610;28;20681;-73
2023/06/05 01:46:00;;;;;;;4.35;1.80;;;18.50;94.30;;;;;;5050664;28;20063;-74
2023/06/05 01:48:30;;;;;;;2.75;1.13;;;18.60;92.60;;;;;;5050347;28;20130;-73
2023/06/05 01:51:02;;;;;;;8.98;1.70;;;18.70;91.10;;;;;;5049190;28;20091;-74
2023/06/05 01:53:29;;;;;;;6.55;1.60;;;18.80;90.90;;;;;;5048915;28;20029;-74
2023/06/05 01:55:57;;;;;;;4.07;1.20;;;18.80;90.70;;;;;;5050162;28;20793;-74
2023/06/05 01:58:23;;;;;;;4.97;1.15;;;18.80;90.50;;;;;;5048039;28;20048;-74
2023/06/05 02:00:49;;;;;;;2.42;1.30;;;18.80;90.10;;;;;;5050254;28;20033;-75
2023/06/05 02:03:18;;;;;;;6.43;1.92;;;18.90;89.40;;;;;;5048656;28;20652;-75
2023/06/05 02:05:44;;;;;;;5.15;1.27;;;18.90;90.00;;;;;;5050030;28;20018;-75
2023/06/05 02:08:10;;;;;;;3.28;1.23;;;18.90;90.50;;;;;;5050127;28;20033;-74
2023/06/05 02:10:42;;;;;;;3.80;1.40;;;18.90;90.20;;;;;;5050006;28;20052;-74
2023/06/05 02:13:08;;;;;;;2.55;1.02;;;18.90;89.60;;;;;;5049623;28;20028;-75
2023/06/05 02:15:35;;;;;;;2.20;1.08;;;18.90;91.40;;;;;;5050081;28;20033;-75
2023/06/05 02:18:02;;;;;;;2.90;1.52;;;18.90;93.00;;;;;;5049831;28;20795;-74
2023/06/05 02:20:28;;;;;;;4.13;1.20;;;18.80;93.70;;;;;;5048449;28;20029;-74
2023/06/05 02:22:55;;;;;;;4.15;1.50;;;18.70;93.90;;;;;;5048483;28;20014;-74
2023/06/05 02:25:26;;;;;;;2.42;1.20;;;18.60;93.90;;;;;;5048484;28;20025;-73
2023/06/05 02:27:53;;;;;;;4.20;1.30;;;18.60;94.00;;;;;;5049601;28;20116;-75
2023/06/05 02:30:20;;;;;;;3.85;1.48;;;18.50;93.50;;;;;;5049777;28;20075;-75
2023/06/05 02:32:46;;;;;;;6.00;1.10;;;18.50;94.10;;;;;;5049691;28;20036;-74
2023/06/05 02:35:12;;;;;;;4.20;1.35;;;18.40;94.30;;;;;;5049504;28;20029;-75
2023/06/05 02:37:46;;;;;;;6.68;1.65;;;18.40;94.90;;;;;;5049484;28;20044;-75
2023/06/05 02:40:13;;;;;;;6.43;1.65;;;18.40;94.90;;;;;;5049671;28;20020;-74
2023/06/05 02:42:40;;;;;;;3.15;1.15;;;18.30;94.90;;;;;;5049510;28;20037;-76
2023/06/05 02:45:07;;;;;;;3.60;1.60;;;18.20;95.10;;;;;;5049235;28;20021;-75
2023/06/05 02:47:33;;;;;;;3.22;1.48;;;18.30;95.00;;;;;;5048244;28;20035;-75
2023/06/05 02:49:59;;;;;;;3.20;1.50;;;18.30;95.20;;;;;;5049559;28;20029;-75
2023/06/05 02:52:24;;;;;;;5.78;1.52;;;18.30;95.80;;;;;;5049362;28;20222;-75
2023/06/05 02:54:51;;;;;;;7.10;1.85;;;18.30;96.00;;;;;;5049100;28;20087;-75
2023/06/05 02:57:17;;;;;;;4.22;1.77;;;18.30;96.30;;;;;;5049034;28;20077;-75
2023/06/05 02:59:43;;;;;;;5.38;1.17;;;18.30;96.80;;;;;;5047968;28;20021;-75
2023/06/05 03:02:11;;;;;;;4.13;1.40;;;18.20;97.30;;;;;;5049666;28;20040;-75
2023/06/05 03:04:39;;;;;;;7.47;1.30;;;18.20;96.60;;;;;;5049651;28;20390;-75
2023/06/05 03:07:05;;;;;;;3.55;1.50;;;18.20;96.60;;;;;;5049544;28;20219;-75
2023/06/05 03:09:31;;;;;;;3.22;1.25;;;18.30;96.50;;;;;;5048922;28;20117;-75
2023/06/05 03:11:58;;;;;;;4.35;1.83;;;18.20;95.90;;;;;;5049349;28;20047;-75
2023/06/05 03:14:27;;;;;;;3.40;1.77;;;18.20;96.30;;;;;;5049329;28;20112;-73
2023/06/05 03:16:53;;;;;;;10.23;1.80;;;18.20;97.30;;;;;;5049283;28;20494;-75
2023/06/05 03:19:19;;;;;;;5.50;1.35;;;18.20;96.00;;;;;;5048943;28;20078;-75
2023/06/05 03:21:47;;;;;;;5.60;1.63;;;18.20;96.20;;;;;;5049174;28;20504;-75
2023/06/05 03:24:16;;;;;;;6.68;1.75;;;18.30;96.30;;;;;;5049028;28;20025;-76
2023/06/05 03:26:43;;;;;;;6.72;2.28;;;18.30;95.90;;;;;;5049124;28;20025;-75
2023/06/05 03:29:10;;;;;;;4.72;1.75;;;18.40;95.60;;;;;;5048908;28;20021;-74
2023/06/05 03:31:36;;;;;;;5.55;1.52;;;18.40;95.80;;;;;;5049287;28;20047;-76
2023/06/05 03:34:03;;;;;;;5.45;1.65;;;18.40;96.40;;;;;;5048875;28;20020;-75
2023/06/05 03:36:30;;;;;;;5.95;2.03;;;18.50;96.80;;;;;;5048916;28;20086;-76
2023/06/05 03:38:56;;;;;;;6.22;1.90;;;18.50;97.30;;;;;;5048978;28;20127;-75
2023/06/05 03:41:22;;;;;;;6.20;1.60;;;18.50;98.80;;;;;;5048793;28;20025;-75
2023/06/05 03:43:49;;;;;;;3.60;1.42;;;18.50;99.80;;;;;;5048663;28;20082;-76
2023/06/05 03:46:18;;;;;;;3.85;1.58;;;18.60;98.50;;;;;;5048687;28;20021;-74
2023/06/05 03:48:59;;;;;;;5.68;2.20;;;18.70;98.30;;;;;;5047467;28;20029;-75
2023/06/05 03:51:30;;;;;;;3.78;1.50;;;18.60;99.40;;;;;;5047488;28;20823;-76
2023/06/05 03:53:59;;;;;;;8.27;2.22;;;18.80;99.90;;;;;;5048585;28;20583;-75
2023/06/05 03:56:33;;;;;;;4.10;1.42;;;18.90;99.90;;;;;;5048597;28;20048;-75
2023/06/05 03:59:19;;;;;;;5.60;1.90;;;19.00;99.60;;;;;;5048499;28;20083;-76
2023/06/05 04:01:45;;;;;;;3.90;1.73;;;19.10;97.70;;;;;;5047103;28;20695;-74
2023/06/05 04:04:11;;;;;;;5.43;2.05;;;19.20;96.80;;;;;;5048622;28;20025;-74
2023/06/05 04:06:36;;;;;;;7.63;1.63;;;19.40;96.90;;;;;;5047235;28;20123;-74
2023/06/05 04:09:10;;;;;;;10.25;1.85;;;19.50;97.80;;;;;;5047382;28;20021;-73
2023/06/05 04:11:38;;;;;;;3.00;1.48;;;19.60;97.90;;;;;;5048672;28;20382;-74
2023/06/05 04:14:04;;;;;;;3.38;1.40;;;19.70;97.00;;;;;;5047185;28;20025;-74
2023/06/05 04:16:31;;;;;;;4.15;1.38;;;19.80;96.40;;;;;;5047407;28;20501;-74
2023/06/05 04:18:57;;;;;;;9.02;2.17;;;19.90;96.00;;;;;;5048490;28;20025;-74
2023/06/05 04:21:22;;;;;;;6.07;2.05;;;20.00;96.70;;;;;;5048227;28;20393;-75
2023/06/05 04:23:48;;;;;;;10.05;2.55;;;20.00;97.60;;;;;;5052127;28;20107;-75
2023/06/05 04:26:15;;;;;;;7.03;2.80;;;20.10;97.40;;;;;;5051921;28;20037;-73
2023/06/05 04:28:42;;;;;;;10.40;2.72;;;20.10;97.40;;;;;;5051873;28;20441;-74
2023/06/05 04:31:07;;;;;;;9.52;3.00;;;20.10;97.90;;;;;;5051932;28;20658;-75
2023/06/05 04:33:33;;;;;;;7.45;3.28;;;20.10;97.80;;;;;;5051723;28;20025;-74
2023/06/05 04:35:59;;;;;;;7.78;3.15;;;20.10;97.50;;;;;;5051652;28;20055;-75
2023/06/05 04:38:24;;;;;;;8.95;2.65;;;20.30;97.30;;;;;;5051703;28;20060;-74
2023/06/05 04:40:50;;;;;;;8.40;3.15;;;20.40;96.50;;;;;;5051603;28;20392;-75
2023/06/05 04:43:16;;;;;;;7.53;2.90;;;20.60;96.70;;;;;;5051361;28;20036;-74
2023/06/05 04:45:42;;;;;;;13.02;3.33;;;20.70;96.70;;;;;;5051610;28;20056;-75
2023/06/05 04:48:08;;;;;;;8.70;2.40;;;20.80;95.90;;;;;;5051527;28;20044;-74
2023/06/05 04:50:35;;;;;;;7.10;3.05;;;20.90;96.10;;;;;;5051614;28;20037;-75
2023/06/05 04:53:01;;;;;;;8.45;3.13;;;20.90;96.80;;;;;;5051511;28;20021;-75
2023/06/05 04:55:27;;;;;;;9.48;3.03;;;21.10;97.00;;;;;;5051453;28;20032;-75
2023/06/05 04:57:54;;;;;;;7.65;2.60;;;21.20;96.20;;;;;;5051278;28;20517;-75
2023/06/05 05:00:19;;;;;;;5.07;2.35;;;21.40;95.30;;;;;;5051442;28;20108;-74
2023/06/05 05:02:45;;;;;;;12.32;2.20;;;21.50;94.30;;;;;;5051030;28;20140;-74
2023/06/05 05:05:13;;;;;;;7.78;2.03;;;21.50;93.30;;;;;;5051129;28;20486;-76
2023/06/05 05:07:42;;;;;;;12.07;2.38;;;21.50;92.50;;;;;;5049929;28;20024;-75
2023/06/05 05:10:09;;;;;;;5.35;2.05;;;21.60;92.40;;;;;;5051288;28;20452;-76
2023/06/05 05:12:36;;;;;;;4.97;2.78;;;21.70;92.70;;;;;;5049537;28;20039;-75
2023/06/05 05:15:03;;;;;;;6.32;2.55;;;21.90;92.90;;;;;;5051221;28;20033;-76
2023/06/05 05:17:32;;;;;;;10.15;2.90;;;22.00;93.00;;;;;;5049602;28;20408;-75
2023/06/05 05:19:58;;;;;;;7.22;2.50;;;22.20;92.20;;;;;;5050896;28;20037;-76
2023/06/05 05:22:26;;;;;;;5.32;2.28;;;22.30;91.50;;;;;;5050865;28;20498;-76
2023/06/05 05:24:51;;;;;;;8.52;2.78;;;22.40;87.80;;;;;;5051036;28;20102;-75
2023/06/05 05:27:17;;;;;;;6.40;1.80;;;22.40;83.90;;;;;;5050728;28;20428;-74
2023/06/05 05:29:42;;;;;;;8.05;2.17;;;22.40;81.50;;;;;;5050742;28;20041;-76
2023/06/05 05:32:08;;;;;;;10.38;2.60;;;22.50;81.30;;;;;;5050817;28;20028;-76
2023/06/05 05:34:34;;;;;;;5.70;2.38;;;22.60;80.30;;;;;;5050725;28;20492;-76
2023/06/05 05:37:01;;;;;;;6.45;2.28;;;22.80;80.80;;;;;;5050286;28;20051;-76
2023/06/05 05:39:26;;;;;;;8.05;2.60;;;22.90;80.70;;;;;;5050352;28;20037;-76
2023/06/05 05:41:52;;;;;;;9.40;2.38;;;22.90;79.60;;;;;;5050392;28;20028;-75
2023/06/05 05:44:19;;;;;;;7.07;2.28;;;23.00;77.20;;;;;;5050317;28;20405;-77
2023/06/05 05:46:48;;;;;;;6.22;2.13;;;23.20;71.90;;;;;;5049076;28;20506;-75
2023/06/05 05:49:14;;;;;;;6.32;2.33;;;23.50;69.10;;;;;;5050374;28;20024;-76
2023/06/05 05:51:40;;;;;;;3.72;1.70;;;23.80;67.80;;;;;;5050095;28;20374;-76
2023/06/05 05:54:05;;;;;;;7.05;2.38;;;24.30;67.20;;;;;;5050225;28;20442;-73
2023/06/05 05:56:31;;;;;;;5.22;2.47;;;25.00;63.90;;;;;;5048553;28;20150;-76
2023/06/05 05:58:57;;;;;;;6.72;1.90;;;25.70;60.00;;;;;;5050066;28;20493;-76
2023/06/05 06:01:23;;;;;;;5.13;2.55;;;26.40;56.60;;;;;;5049646;28;20145;-75
2023/06/05 06:03:48;;;;;;;6.78;2.00;;;27.70;53.70;;;;;;5048560;28;20029;-74
2023/06/05 06:06:14;;;;;;;8.52;1.88;;;28.40;51.40;;;;;;5049705;28;20095;-75
2023/06/05 06:08:40;;;;;;;4.50;2.13;;;29.30;51.50;;;;;;5050048;28;20027;-74
2023/06/05 06:11:06;;;;;;;5.93;2.33;;;30.40;48.20;;;;;;5049977;28;20094;-75
2023/06/05 06:13:33;;;;;;;8.75;2.50;;;30.80;44.40;;;;;;5050117;28;20112;-75
2023/06/05 06:15:59;;;;;;;11.23;2.40;;;30.80;45.10;;;;;;5049795;28;20060;-74
2023/06/05 06:18:25;;;;;;;10.07;2.72;;;31.40;44.10;;;;;;5049709;28;20110;-74
2023/06/05 06:20:51;;;;;;;3.17;2.00;;;31.40;43.90;;;;;;5049681;28;20032;-75
2023/06/05 06:23:16;;;;;;;5.20;2.08;;;31.60;42.40;;;;;;5049565;28;20033;-75
2023/06/05 06:25:42;;;;;;;12.18;1.90;;;31.70;42.10;;;;;;5049887;28;20064;-75
2023/06/05 06:28:08;;;;;;;15.43;2.03;;;32.00;42.60;;;;;;5048581;28;20021;-75
2023/06/05 06:30:35;;;;;;;5.68;2.05;;;31.90;41.40;;;;;;5049803;28;20485;-75
2023/06/05 06:33:03;;;;;;;4.40;2.08;;;31.90;41.30;;;;;;5049621;28;20448;-75
2023/06/05 06:35:31;;;;;;;12.35;2.50;;;31.70;41.80;;;;;;5049517;28;20035;-75
2023/06/05 06:37:58;;;;;;;5.90;2.03;;;31.40;40.40;;;;;;5048104;28;20114;-75
2023/06/05 06:40:24;;;;;;;5.78;2.28;;;31.40;41.10;;;;;;5049513;28;20650;-75
2023/06/05 06:42:51;;;;;;;7.50;2.45;;;31.30;40.80;;;;;;5048160;28;20460;-75
2023/06/05 06:45:17;;;;;;;9.50;2.10;;;31.30;41.10;;;;;;5047407;28;20029;-75
2023/06/05 06:47:43;;;;;;;4.93;2.00;;;31.00;41.90;;;;;;5049392;28;20116;-75
2023/06/05 06:50:09;;;;;;;5.50;2.10;;;31.20;41.90;;;;;;5049576;28;20112;-75
2023/06/05 06:52:35;;;;;;;7.93;2.10;;;31.40;42.60;;;;;;5049480;28;20103;-75
2023/06/05 06:55:01;;;;;;;3.95;1.80;;;31.90;41.10;;;;;;5049400;28;20539;-74
2023/06/05 06:57:26;;;;;;;11.25;2.17;;;31.60;40.40;;;;;;5049005;28;20071;-75
2023/06/05 06:59:53;;;;;;;12.27;2.30;;;31.40;40.40;;;;;;5049399;28;20509;-75
2023/06/05 07:02:20;;;;;;;7.30;2.30;;;31.10;40.70;;;;;;5047977;28;20116;-75
2023/06/05 07:04:47;;;;;;;6.10;2.03;;;30.90;41.10;;;;;;5049401;28;20030;-74
2023/06/05 07:07:17;;;;;;;6.65;1.92;;;30.90;40.70;;;;;;5048017;28;20029;-75
2023/06/05 07:09:44;;;;;;;4.55;1.73;;;31.30;39.70;;;;;;5049499;28;20017;-75
2023/06/05 07:12:11;;;;;;;4.00;1.92;;;31.40;38.80;;;;;;5049474;28;20070;-75
2023/06/05 07:14:37;;;;;;;6.80;2.38;;;31.30;38.20;;;;;;5049240;28;20040;-75
2023/06/05 07:17:03;;;;;;;4.75;2.13;;;30.90;39.30;;;;;;5048984;28;20013;-74
2023/06/05 07:19:30;;;;;;;9.43;2.00;;;30.90;40.40;;;;;;5049112;28;20029;-75
2023/06/05 07:21:57;;;;;;;5.88;3.03;;;30.50;40.60;;;;;;5049024;28;20105;-75
2023/06/05 07:24:28;;;;;;;7.38;2.88;;;30.90;41.40;;;;;;5049076;28;20029;-75
2023/06/05 07:26:56;;;;;;;6.10;2.15;;;30.90;39.90;;;;;;5047820;28;20028;-75
2023/06/05 07:29:24;;;;;;;4.00;1.85;;;30.70;39.50;;;;;;5047515;28;20021;-75
2023/06/05 07:31:51;;;;;;;13.02;1.83;;;30.20;41.00;;;;;;5048801;28;20067;-75
2023/06/05 07:34:18;;;;;;;3.30;2.13;;;29.80;41.50;;;;;;5047632;28;20029;-74
2023/06/05 07:36:46;;;;;;;11.85;1.92;;;29.30;41.80;;;;;;5049081;28;20033;-76
2023/06/05 07:39:15;;;;;;;5.15;2.10;;;28.90;42.50;;;;;;5048699;28;20036;-75
2023/06/05 07:41:41;;;;;;;4.53;1.98;;;28.80;42.50;;;;;;5047605;28;20025;-75
2023/06/05 07:44:11;;;;;;;6.32;2.13;;;28.90;42.90;;;;;;5048919;28;20027;-75
2023/06/05 07:46:39;;;;;;;5.20;2.20;;;29.60;42.70;;;;;;5048865;28;20048;-74
2023/06/05 07:49:05;;;;;;;13.30;2.20;;;30.00;41.00;;;;;;5048797;28;20502;-74
2023/06/05 07:51:35;;;;;;;7.03;2.30;;;29.90;41.90;;;;;;5048957;28;20040;-75
2023/06/05 07:54:03;;;;;;;13.52;2.83;;;29.80;42.80;;;;;;5048511;28;20021;-74
2023/06/05 07:56:28;;;;;;;9.60;2.17;;;29.90;41.60;;;;;;5050110;28;20049;-75
2023/06/05 07:58:54;;;;;;;7.90;2.40;;;29.60;41.80;;;;;;5052639;28;20546;-75
2023/06/05 08:01:21;;;;;;;8.60;2.88;;;29.20;42.10;;;;;;5051307;28;20021;-75
2023/06/05 08:03:46;;;;;;;6.07;2.28;;;28.80;43.90;;;;;;5051220;28;20033;-75
2023/06/05 08:06:12;;;;;;;15.60;2.53;;;28.60;43.40;;;;;;5052589;28;20028;-74
2023/06/05 08:08:38;;;;;;;6.05;1.83;;;28.40;44.20;;;;;;5052392;28;20073;-75
2023/06/05 08:11:03;;;;;;;5.32;2.13;;;28.40;45.00;;;;;;5052440;28;20493;-74
2023/06/05 08:13:29;;;;;;;6.03;2.92;;;28.20;44.30;;;;;;5052395;28;20094;-75
2023/06/05 08:15:55;;;;;;;8.70;2.28;;;28.20;43.80;;;;;;5052258;28;20056;-74
2023/06/05 08:18:21;;;;;;;8.20;2.28;;;27.90;45.30;;;;;;5052165;28;20469;-75
2023/06/05 08:20:46;;;;;;;9.00;2.47;;;27.70;46.20;;;;;;5052285;28;20560;-75
2023/06/05 08:23:13;;;;;;;12.77;2.38;;;27.30;45.70;;;;;;5051899;28;20098;-75
2023/06/05 08:25:39;;;;;;;6.57;2.92;;;27.30;46.10;;;;;;5052079;28;20025;-75
2023/06/05 08:28:04;;;;;;;9.02;2.65;;;27.40;45.80;;;;;;5051888;28;20500;-74
2023/06/05 08:30:30;;;;;;;6.63;2.78;;;27.40;45.60;;;;;;5050555;28;20025;-74
2023/06/05 08:32:55;;;;;;;6.85;2.33;;;27.50;45.60;;;;;;5051806;28;20025;-75
2023/06/05 08:35:21;;;;;;;22.95;2.85;;;28.00;46.40;;;;;;5051697;28;20051;-76
2023/06/05 08:37:47;;;;;;;8.25;2.70;;;28.50;44.90;;;;;;5051740;28;20099;-75
2023/06/05 08:40:15;;;;;;;7.75;2.47;;;28.40;45.50;;;;;;5051916;28;20033;-74
2023/06/05 08:42:40;;;;;;;10.93;2.63;;;28.50;44.90;;;;;;5051838;28;20035;-75
2023/06/05 08:45:08;;;;;;;9.68;2.55;;;28.30;44.60;;;;;;5051646;28;20029;-75
2023/06/05 08:47:41;;;;;;;7.20;2.47;;;28.40;43.60;;;;;;5051770;28;20032;-75
2023/06/05 08:50:08;;;;;;;3.67;2.10;;;28.60;44.40;;;;;;5051767;28;20100;-75
2023/06/05 08:52:36;;;;;;;5.32;1.85;;;28.70;43.50;;;;;;5051702;28;20037;-75
2023/06/05 08:55:07;;;;;;;5.60;1.65;;;28.80;42.70;;;;;;5049977;28;20021;-75
2023/06/05 08:57:36;;;;;;;13.63;2.03;;;28.70;40.20;;;;;;5051322;28;20103;-75
2023/06/05 09:00:10;;;;;;;5.60;1.50;;;28.60;39.50;;;;;;5051499;28;20017;-74
2023/06/05 09:02:38;;;;;;;4.88;1.60;;;27.90;39.60;;;;;;5051316;28;20028;-75
2023/06/05 09:05:04;;;;;;;8.43;1.33;;;27.80;40.40;;;;;;5051422;28;20037;-74
2023/06/05 09:07:31;;;;;;;4.97;1.30;;;27.80;40.00;;;;;;5050941;28;20816;-74
2023/06/05 09:09:57;;;;;;;3.13;1.40;;;28.10;41.40;;;;;;5051200;28;20033;-75
2023/06/05 09:12:24;;;;;;;4.15;1.55;;;28.60;40.50;;;;;;5051107;28;20024;-75
2023/06/05 09:14:50;;;;;;;3.88;2.10;;;28.70;38.80;;;;;;5049913;28;20163;-75
2023/06/05 09:17:17;;;;;;;5.88;1.88;;;28.60;40.20;;;;;;5050997;28;20051;-75
2023/06/05 09:19:44;;;;;;;3.13;1.70;;;29.00;40.30;;;;;;5049936;28;20029;-75
2023/06/05 09:22:12;;;;;;;7.35;1.83;;;29.30;39.10;;;;;;5051206;28;20017;-75
2023/06/05 09:24:40;;;;;;;4.72;1.70;;;29.70;38.90;;;;;;5050941;28;20025;-75
2023/06/05 09:27:08;;;;;;;11.63;1.73;;;30.00;37.10;;;;;;5050926;28;20025;-75
2023/06/05 09:29:36;;;;;;;2.80;2.00;;;30.00;38.30;;;;;;5051090;28;20076;-75
2023/06/05 09:32:06;;;;;;;12.35;2.25;;;30.00;37.60;;;;;;5051007;28;20554;-76
2023/06/05 09:34:39;;;;;;;7.68;2.80;;;30.30;38.30;;;;;;5049838;28;20055;-75
2023/06/05 09:37:07;;;;;;;9.00;1.80;;;30.60;38.90;;;;;;5049511;28;20024;-73
2023/06/05 09:39:37;;;;;;;5.47;1.50;;;30.30;36.70;;;;;;5050682;28;20024;-73
2023/06/05 09:42:03;;;;;;;7.93;1.95;;;30.50;37.80;;;;;;5050707;28;20028;-73
2023/06/05 09:44:31;;;;;;;10.52;2.70;;;30.70;37.70;;;;;;5050656;28;20052;-74
2023/06/05 09:47:05;;;;;;;18.50;3.05;;;30.70;35.90;;;;;;5050438;28;20059;-74
2023/06/05 09:49:32;;;;;;;9.70;2.72;;;30.60;36.50;;;;;;5049093;28;20484;-73
2023/06/05 09:52:00;;;;;;;5.35;1.98;;;30.80;36.50;;;;;;5050232;28;20033;-74
2023/06/05 09:54:28;;;;;;;5.90;1.67;;;31.00;36.10;;;;;;5050144;28;20446;-74
2023/06/05 09:57:11;;;;;;;8.32;2.22;;;31.00;36.70;;;;;;5048823;28;20049;-72
2023/06/05 09:59:45;;;;;;;10.05;2.22;;;30.90;35.70;;;;;;5048798;28;20037;-74
2023/06/05 10:02:16;;;;;;;12.10;1.65;;;30.30;37.10;;;;;;5048919;28;20021;-74
2023/06/05 10:05:00;;;;;;;8.20;2.22;;;29.90;39.60;;;;;;5050070;28;20501;-74
2023/06/05 10:07:27;;;;;;;5.80;1.92;;;29.60;39.50;;;;;;5048448;28;20025;-74
2023/06/05 10:09:54;;;;;;;7.00;1.77;;;29.00;39.50;;;;;;5049870;28;20061;-75
2023/06/05 10:12:20;;;;;;;3.40;2.03;;;29.00;41.30;;;;;;5049944;28;20063;-73
2023/06/05 10:14:48;;;;;;;6.03;1.73;;;28.70;41.00;;;;;;5048693;28;20025;-74
2023/06/05 10:17:15;;;;;;;6.57;2.10;;;28.50;40.00;;;;;;5049808;28;20024;-74
2023/06/05 10:19:44;;;;;;;9.00;2.80;;;28.30;43.10;;;;;;5049095;28;20032;-74
2023/06/05 10:22:11;;;;;;;7.72;1.80;;;28.20;42.70;;;;;;5050020;28;20025;-73
2023/06/05 10:24:44;;;;;;;8.13;1.90;;;28.20;42.30;;;;;;5049843;28;20021;-74
2023/06/05 10:27:12;;;;;;;4.30;1.55;;;28.20;43.10;;;;;;5049701;28;20029;-74
2023/06/05 10:29:50;;;;;;;4.38;1.40;;;28.10;43.10;;;;;;5049746;28;20713;-73
2023/06/05 10:32:20;;;;;;;5.20;1.73;;;28.10;42.90;;;;;;5049613;28;20033;-74
2023/06/05 10:34:53;;;;;;;4.38;2.00;;;28.10;40.50;;;;;;5049477;28;20563;-73
2023/06/05 10:37:41;;;;;;;5.70;1.52;;;28.10;40.30;;;;;;5049212;28;20029;-74
2023/06/05 10:40:09;;;;;;;3.47;1.90;;;28.20;40.60;;;;;;5049503;28;20124;-73
2023/06/05 10:42:35;;;;;;;5.32;2.08;;;28.00;42.30;;;;;;5049530;28;20021;-74
2023/06/05 10:45:01;;;;;;;5.63;1.73;;;28.10;41.00;;;;;;5049407;28;20452;-73
2023/06/05 10:47:33;;;;;;;4.82;1.80;;;28.00;39.10;;;;;;5049259;28;20079;-73
2023/06/05 10:50:26;;;;;;;4.75;2.00;;;27.80;40.80;;;;;;5048022;28;20472;-73
2023/06/05 10:52:54;;;;;;;6.47;1.90;;;27.60;39.80;;;;;;5046122;28;20052;-74
2023/06/05 10:55:22;;;;;;;8.27;2.13;;;27.30;40.30;;;;;;5047677;28;20027;-74
2023/06/05 10:58:09;;;;;;;8.38;2.42;;;27.10;41.70;;;;;;5049024;28;20470;-74
2023/06/05 11:00:55;;;;;;;14.10;2.08;;;27.20;40.50;;;;;;5049185;28;20033;-74
2023/06/05 11:03:52;;;;;;;5.57;2.20;;;27.10;39.60;;;;;;5048856;28;20044;-75
2023/06/05 11:06:18;;;;;;;8.20;2.28;;;27.20;41.70;;;;;;5049048;28;20056;-73
2023/06/05 11:09:13;;;;;;;6.55;2.40;;;27.10;41.50;;;;;;5049180;28;20102;-73
2023/06/05 11:12:01;;;;;;;6.28;2.22;;;27.20;42.00;;;;;;5049202;28;20033;-72
2023/06/05 11:14:48;;;;;;;5.03;2.15;;;27.20;39.80;;;;;;5049143;28;20086;-74
2023/06/05 11:17:44;;;;;;;3.75;2.22;;;27.00;38.60;;;;;;5048980;28;20398;-73
2023/06/05 11:20:32;;;;;;;6.40;2.38;;;27.00;42.10;;;;;;5048476;28;20456;-74
2023/06/05 11:22:58;;;;;;;8.88;3.63;;;27.00;40.30;;;;;;5045208;28;20037;-73
2023/06/05 11:25:26;;;;;;;11.48;3.10;;;27.00;40.90;;;;;;5049046;28;20438;-74
2023/06/05 11:28:04;;;;;;;9.18;2.03;;;27.00;41.60;;;;;;5049202;28;20052;-73
2023/06/05 11:30:33;;;;;;;8.48;2.60;;;27.00;39.70;;;;;;5051016;28;20033;-73
2023/06/05 11:33:20;;;;;;;9.50;2.90;;;27.10;39.80;;;;;;5052927;28;20094;-73
2023/06/05 11:35:48;;;;;;;6.20;2.42;;;27.00;41.30;;;;;;5052956;28;20112;-72
2023/06/05 11:38:15;;;;;;;5.68;2.10;;;27.00;42.00;;;;;;5052888;28;20030;-73
2023/06/05 11:40:42;;;;;;;6.97;2.63;;;27.00;40.10;;;;;;5053021;28;20064;-73
2023/06/05 11:43:10;;;;;;;7.07;3.17;;;27.10;41.20;;;;;;5052743;28;20028;-73
2023/06/05 11:45:41;;;;;;;9.90;2.47;;;27.10;42.00;;;;;;5051520;28;20531;-72
2023/06/05 11:48:08;;;;;;;4.30;2.35;;;27.20;41.80;;;;;;5052851;28;20075;-73
2023/06/05 11:50:34;;;;;;;7.28;2.00;;;27.10;40.70;;;;;;5051452;28;20032;-74
2023/06/05 11:53:07;;;;;;;4.68;2.70;;;27.00;41.70;;;;;;5052639;28;20025;-73
2023/06/05 11:58:24;;;;;;;4.97;2.05;;;27.10;43.50;;;;;;5052674;28;20202;-73
2023/06/05 12:00:51;;;;;;;7.68;2.47;;;27.10;43.00;;;;;;5051453;28;20029;-73
2023/06/05 12:03:21;;;;;;;6.35;2.60;;;27.10;42.80;;;;;;5052391;28;20025;-73
2023/06/05 12:05:50;;;;;;;4.25;2.33;;;26.90;42.30;;;;;;5051111;28;20401;-73
2023/06/05 12:08:27;;;;;;;5.57;2.30;;;26.90;43.40;;;;;;5051162;28;20444;-73
2023/06/05 12:10:54;;;;;;;6.53;3.53;;;26.90;42.20;;;;;;5051121;28;20104;-73
2023/06/05 12:13:20;;;;;;;4.78;2.45;;;27.00;42.50;;;;;;5052244;28;20275;-73
2023/06/05 12:16:06;;;;;;;11.32;2.25;;;27.00;44.20;;;;;;5050776;28;20694;-73
2023/06/05 12:18:34;;;;;;;36.13;19.52;;;26.90;41.50;;;;;;5051944;28;20080;-72
2023/06/05 12:21:01;;;;;;;7.15;2.60;;;26.80;41.60;;;;;;5052257;28;20028;-73
2023/06/05 12:23:32;;;;;;;13.07;4.35;;;26.80;42.10;;;;;;5052090;28;20032;-73
2023/06/05 12:26:03;;;;;;;4.50;2.58;;;27.00;42.50;;;;;;5051325;28;20017;-73
2023/06/05 12:28:29;;;;;;;7.30;3.28;;;27.00;42.80;;;;;;5051913;28;20032;-73
2023/06/05 12:30:55;;;;;;;6.38;3.03;;;26.90;44.30;;;;;;5050695;28;20486;-73
2023/06/05 12:33:25;;;;;;;6.13;2.75;;;27.00;43.20;;;;;;5050538;28;20021;-74
2023/06/05 12:36:07;;;;;;;6.43;2.67;;;27.00;44.00;;;;;;5050633;28;20025;-73
2023/06/05 12:38:41;;;;;;;7.75;3.13;;;27.00;43.10;;;;;;5050561;28;20037;-73
2023/06/05 12:41:07;;;;;;;4.35;2.67;;;27.00;44.20;;;;;;5050092;28;20127;-73
2023/06/05 12:43:34;;;;;;;9.23;3.10;;;27.00;44.10;;;;;;5051455;28;20040;-73
2023/06/05 12:46:00;;;;;;;4.72;2.40;;;27.10;44.60;;;;;;5052008;28;20516;-73
2023/06/05 12:48:26;;;;;;;11.70;4.07;;;27.20;45.00;;;;;;5051730;28;20041;-73
2023/06/05 12:50:53;;;;;;;8.32;3.15;;;27.20;43.30;;;;;;5051774;28;20017;-74
2023/06/05 12:53:19;;;;;;;8.93;3.28;;;27.10;43.10;;;;;;5050350;28;20025;-74
2023/06/05 12:55:45;;;;;;;6.75;3.15;;;27.00;43.80;;;;;;5049958;28;20516;-73